Time;durP1;ratioP1;P1;durP2;ratioP2;P2;SDS_P1;SDS_P2;PMS_P1;PMS_P2;Temp;Humidity;BMP_temperature;BMP_pressure;BME280_temperature;BME280_humidity;BME280_pressure;Samples;Min_cycle;Max_cycle;Signal;HPM_P1;HPM_P2
2023/07/30 00:01:50;;;;;;;18.15;12.95;;;;;;;15.40;100.00;98541.34;5068365;28;20042;-57
2023/07/30 00:04:17;;;;;;;21.23;12.13;;;;;;;15.40;100.00;98536.94;5065976;28;20487;-55
2023/07/30 00:06:44;;;;;;;18.83;12.98;;;;;;;15.39;100.00;98548.34;5065216;28;20041;-57
2023/07/30 00:09:11;;;;;;;19.60;12.60;;;;;;;15.39;100.00;98550.97;5066624;28;20032;-56
2023/07/30 00:11:37;;;;;;;26.73;12.65;;;;;;;15.10;100.00;98502.50;5068721;28;20044;-56
2023/07/30 00:14:03;;;;;;;19.75;12.35;;;;;;;15.37;100.00;98544.19;5055525;28;20066;-57
2023/07/30 00:16:30;;;;;;;20.40;12.10;;;;;;;15.37;100.00;98547.66;5066747;28;20036;-56
2023/07/30 00:18:59;;;;;;;18.10;12.32;;;;;;;15.36;100.00;98545.97;5066641;28;20059;-57
2023/07/30 00:21:25;;;;;;;26.17;12.60;;;;;;;15.25;100.00;98520.56;5070975;28;20135;-57
2023/07/30 00:23:50;;;;;;;16.45;11.70;;;;;;;15.35;100.00;98544.28;5069958;28;20594;-58
2023/07/30 00:26:17;;;;;;;17.88;11.45;;;;;;;15.36;100.00;98545.97;5031888;28;20045;-56
2023/07/30 00:28:46;;;;;;;22.70;11.88;;;;;;;15.35;100.00;98538.22;5051628;28;20055;-57
2023/07/30 00:31:12;;;;;;;19.05;11.43;;;;;;;15.19;100.00;98507.06;5064795;28;20558;-56
2023/07/30 00:33:38;;;;;;;23.40;12.18;;;;;;;15.34;100.00;98528.69;5049205;28;20036;-55
2023/07/30 00:36:04;;;;;;;19.27;12.20;;;;;;;15.36;100.00;98537.28;5067978;28;20372;-57
2023/07/30 00:38:30;;;;;;;15.98;11.10;;;;;;;15.35;100.00;98541.69;5053915;28;20043;-55
2023/07/30 00:40:57;;;;;;;16.38;11.52;;;;;;;15.34;100.00;98536.53;5069799;28;20040;-57
2023/07/30 00:43:23;;;;;;;16.92;10.45;;;;;;;15.33;100.00;98527.88;5067898;28;20055;-59
2023/07/30 00:45:51;;;;;;;17.30;11.52;;;;;;;15.28;100.00;98528.19;5069393;28;20089;-58
2023/07/30 00:48:17;;;;;;;14.88;10.30;;;;;;;15.28;100.00;98524.75;5069253;28;20127;-59
2023/07/30 00:50:45;;;;;;;16.83;11.30;;;;;;;15.25;100.00;98520.56;5054246;28;20068;-58
2023/07/30 00:53:14;;;;;;;14.85;10.40;;;;;;;15.21;100.00;98515.66;5053604;28;20039;-59
2023/07/30 00:55:40;;;;;;;16.00;10.32;;;;;;;15.20;100.00;98521.81;5070823;28;20042;-58
2023/07/30 00:58:06;;;;;;;16.13;10.32;;;;;;;15.18;100.00;98524.53;5051115;28;20052;-57
2023/07/30 01:00:32;;;;;;;16.17;10.52;;;;;;;15.17;100.00;98520.28;5049635;28;20044;-58
2023/07/30 01:02:59;;;;;;;17.38;10.40;;;;;;;15.16;100.00;98518.59;5068841;28;20515;-58
2023/07/30 01:05:26;;;;;;;16.77;10.30;;;;;;;15.12;100.00;98511.91;5068828;28;20040;-58
2023/07/30 01:07:52;;;;;;;14.32;9.43;;;;;;;15.14;100.00;98511.78;5071471;28;20520;-59
2023/07/30 01:10:18;;;;;;;14.45;9.63;;;;;;;15.12;100.00;98518.94;5059275;28;20044;-56
2023/07/30 01:12:46;;;;;;;12.77;9.48;;;;;;;15.11;100.00;98512.88;5063712;28;20384;-57
2023/07/30 01:15:13;;;;;;;14.65;9.75;;;;;;;15.10;100.00;98515.56;5069460;28;20044;-57
2023/07/30 01:17:42;;;;;;;18.40;9.73;;;;;;;15.10;100.00;98512.97;5056554;28;20525;-57
2023/07/30 01:20:08;;;;;;;14.27;9.13;;;;;;;15.10;100.00;98510.34;5065665;28;20113;-59
2023/07/30 01:22:34;;;;;;;12.95;8.55;;;;;;;15.08;100.00;98510.44;5051120;28;20041;-59
2023/07/30 01:25:02;;;;;;;14.95;8.88;;;;;;;15.09;100.00;98511.28;5057961;28;20173;-58
2023/07/30 01:27:35;;;;;;;15.15;8.25;;;;;;;15.08;100.00;98515.69;5027489;28;20139;-59
2023/07/30 01:30:29;;;;;;;14.75;9.07;;;;;;;14.82;100.00;98461.72;5038673;28;20075;-59
2023/07/30 01:32:59;;;;;;;14.77;8.50;;;;;;;15.05;100.00;98504.59;5038475;28;20040;-58
2023/07/30 01:35:27;;;;;;;12.05;8.20;;;;;;;15.08;100.00;98507.00;5033844;28;20580;-57
2023/07/30 01:37:54;;;;;;;12.35;7.72;;;;;;;15.08;100.00;98520.06;5067377;28;20044;-58
2023/07/30 01:40:21;;;;;;;16.02;8.40;;;;;;;15.06;100.00;98507.13;5031073;28;20428;-56
2023/07/30 01:42:49;;;;;;;14.93;8.77;;;;;;;15.05;100.00;98517.69;5053530;28;20473;-54
2023/07/30 01:45:17;;;;;;;13.45;8.07;;;;;;;15.04;100.00;98529.94;5068993;28;20988;-57
2023/07/30 01:47:44;;;;;;;14.07;7.78;;;;;;;15.04;100.00;98519.47;5070135;28;20071;-56
2023/07/30 01:50:12;;;;;;;13.15;8.07;;;;;;;15.03;100.00;98520.41;5068353;28;20585;-57
2023/07/30 01:52:38;;;;;;;12.63;8.13;;;;;;;14.87;100.00;98498.88;5051702;28;20151;-55
2023/07/30 01:55:04;;;;;;;11.55;7.90;;;;;;;15.00;100.00;98525.03;5057633;28;20091;-57
2023/07/30 01:57:34;;;;;;;14.73;8.37;;;;;;;15.00;100.00;98528.50;5067815;28;20506;-58
2023/07/30 02:00:00;;;;;;;15.80;8.45;;;;;;;15.00;100.00;98523.25;5065398;28;20962;-58
2023/07/30 02:02:35;;;;;;;10.10;7.80;;;;;;;15.00;100.00;98533.72;5059230;28;20033;-56
2023/07/30 02:05:02;;;;;;;14.90;8.27;;;;;;;14.94;100.00;98515.00;5055666;28;20178;-57
2023/07/30 02:07:30;;;;;;;12.80;8.15;;;;;;;14.99;100.00;98520.72;5065256;28;20848;-55
2023/07/30 02:09:56;;;;;;;13.95;8.07;;;;;;;15.03;100.00;98517.78;5048149;28;20045;-57
2023/07/30 02:12:24;;;;;;;11.20;7.90;;;;;;;15.06;100.00;98527.22;5056775;28;20051;-57
2023/07/30 02:14:52;;;;;;;11.25;7.35;;;;;;;15.09;100.00;98534.84;5067703;28;20581;-56
2023/07/30 02:17:18;;;;;;;12.32;7.90;;;;;;;15.12;100.00;98532.03;5068372;28;20094;-56
2023/07/30 02:20:05;;;;;;;11.32;7.18;;;;;;;15.15;100.00;98540.47;5059947;28;20185;-57
2023/07/30 02:22:31;;;;;;;10.73;7.15;;;;;;;15.10;100.00;98532.13;5062915;28;20484;-55
2023/07/30 02:24:57;;;;;;;13.13;7.75;;;;;;;15.18;100.00;98536.78;5051008;28;20041;-56
2023/07/30 02:27:23;;;;;;;11.55;7.68;;;;;;;15.19;100.00;98531.47;5055579;28;20535;-57
2023/07/30 02:29:49;;;;;;;13.23;7.80;;;;;;;15.22;100.00;98535.66;5081500;28;20036;-58
2023/07/30 02:32:15;;;;;;;13.82;7.18;;;;;;;15.23;100.00;98529.44;5069277;28;20127;-57
2023/07/30 02:34:41;;;;;;;11.07;7.22;;;;;;;15.25;100.00;98536.25;5067954;28;20068;-58
2023/07/30 02:37:07;;;;;;;10.23;7.25;;;;;;;15.27;100.00;98523.91;5066513;28;20613;-58
2023/07/30 02:39:33;;;;;;;10.35;7.55;;;;;;;15.27;100.00;98529.16;5068031;28;20064;-56
2023/07/30 02:41:59;;;;;;;11.23;7.03;;;;;;;15.29;100.00;98534.25;5051330;28;20051;-56
2023/07/30 02:44:25;;;;;;;14.27;7.47;;;;;;;15.30;100.00;98540.31;5040625;28;20063;-57
2023/07/30 02:46:51;;;;;;;11.20;7.80;;;;;;;15.31;100.00;98537.59;5066506;28;20495;-57
2023/07/30 02:49:18;;;;;;;14.40;7.40;;;;;;;15.32;100.00;98547.16;5067967;28;20044;-57
2023/07/30 02:51:48;;;;;;;;;;;;;;;15.31;100.00;98540.22;5069223;28;20056;-57
2023/07/30 02:54:16;;;;;;;10.77;7.30;;;;;;;15.26;100.00;98548.41;5047578;28;20307;-56
2023/07/30 02:56:43;;;;;;;12.23;7.68;;;;;;;15.19;100.00;98531.47;5049818;28;20037;-56
2023/07/30 02:59:09;;;;;;;11.25;7.22;;;;;;;15.26;100.00;98544.97;5062271;28;20052;-56
2023/07/30 03:01:38;;;;;;;14.20;6.70;;;;;;;15.15;100.00;98523.94;5060262;28;20039;-56
2023/07/30 03:04:05;;;;;;;11.10;7.05;;;;;;;15.32;100.00;98554.16;5067742;28;20045;-57
2023/07/30 03:06:31;;;;;;;12.85;6.75;;;;;;;15.34;100.00;98547.00;5066430;28;20508;-57
2023/07/30 03:08:57;;;;;;;8.55;6.15;;;;;;;15.36;100.00;98551.22;5063978;28;20055;-56
2023/07/30 03:11:25;;;;;;;9.25;5.90;;;;;;;15.41;100.00;98553.50;5066503;28;20181;-56
2023/07/30 03:13:51;;;;;;;9.90;6.30;;;;;;;15.47;100.00;98553.06;5064080;28;20128;-58
2023/07/30 03:16:17;;;;;;;8.35;6.10;;;;;;;15.54;100.00;98554.31;5031274;28;20041;-56
2023/07/30 03:18:46;;;;;;;7.93;5.65;;;;;;;15.58;100.00;98548.75;5035781;28;20052;-56
2023/07/30 03:21:12;;;;;;;9.75;5.57;;;;;;;15.68;100.00;98556.78;5050695;28;20567;-55
2023/07/30 03:23:40;;;;;;;8.77;5.82;;;;;;;15.75;100.00;98560.63;5058304;28;20178;-55
2023/07/30 03:26:06;;;;;;;9.13;5.13;;;;;;;15.84;100.00;98559.94;5067771;28;20040;-55
2023/07/30 03:28:32;;;;;;;7.50;4.90;;;;;;;15.92;100.00;98560.19;5058256;28;20045;-58
2023/07/30 03:30:59;;;;;;;6.82;5.28;;;;;;;16.00;100.00;98554.41;5055939;28;20453;-56
2023/07/30 03:33:29;;;;;;;8.73;5.40;;;;;;;16.10;100.00;98556.22;5058030;28;20036;-57
2023/07/30 03:35:57;;;;;;;8.68;5.30;;;;;;;16.19;100.00;98556.47;5073629;28;20094;-56
2023/07/30 03:38:23;;;;;;;7.13;5.18;;;;;;;16.28;100.00;98564.47;5065955;28;20159;-59
2023/07/30 03:40:49;;;;;;;7.65;4.75;;;;;;;16.38;100.00;98564.66;5050638;28;20126;-56
2023/07/30 03:43:15;;;;;;;6.88;5.25;;;;;;;16.47;100.00;98562.16;5064658;28;20044;-57
2023/07/30 03:45:41;;;;;;;7.47;5.97;;;;;;;16.60;100.00;98563.84;5068385;28;20115;-57
2023/07/30 03:48:07;;;;;;;7.85;5.72;;;;;;;16.70;100.00;98572.69;5063200;28;20041;-57
2023/07/30 03:50:33;;;;;;;7.43;4.50;;;;;;;16.78;100.00;98572.94;5049095;28;20064;-58
2023/07/30 03:53:02;;;;;;;9.68;4.85;;;;;;;16.84;100.00;98572.47;5054707;28;20095;-56
2023/07/30 03:55:29;;;;;;;10.38;4.68;;;;;;;16.90;100.00;98574.63;5059875;28;20581;-58
2023/07/30 03:57:55;;;;;;;8.05;4.88;;;;;;;16.87;100.00;98569.59;5066188;28;20063;-57
2023/07/30 04:00:21;;;;;;;7.82;4.45;;;;;;;16.97;100.00;98569.72;5065855;28;20048;-57
2023/07/30 04:02:47;;;;;;;4.95;3.92;;;;;;;16.75;100.00;98529.38;5062339;28;20037;-57
2023/07/30 04:05:13;;;;;;;6.82;4.60;;;;;;;16.76;100.00;98530.22;5068908;28;20060;-57
2023/07/30 04:07:39;;;;;;;8.32;4.75;;;;;;;16.80;100.00;98539.56;5063711;28;20033;-57
2023/07/30 04:10:06;;;;;;;10.48;4.35;;;;;;;17.04;100.00;98574.38;5054878;28;20047;-58
2023/07/30 04:12:34;;;;;;;6.95;4.30;;;;;;;16.99;100.00;98567.81;5068082;28;20044;-56
2023/07/30 04:15:00;;;;;;;7.80;4.50;;;;;;;17.13;99.85;98592.03;5041696;28;20037;-58
2023/07/30 04:17:32;;;;;;;6.18;4.05;;;;;;;16.97;99.43;98562.69;5067503;28;20048;-56
2023/07/30 04:20:00;;;;;;;12.52;4.88;;;;;;;17.19;99.18;98593.34;5052733;28;20055;-57
2023/07/30 04:22:27;;;;;;;6.18;4.15;;;;;;;17.01;98.31;98558.03;5047271;28;20136;-56
2023/07/30 04:24:53;;;;;;;6.85;4.35;;;;;;;17.29;98.31;98605.63;5055809;28;20140;-58
2023/07/30 04:27:20;;;;;;;8.40;4.07;;;;;;;17.31;97.56;98595.84;5084032;28;20050;-57
2023/07/30 04:29:46;;;;;;;4.72;3.47;;;;;;;17.31;97.16;98589.75;5055941;28;20037;-58
2023/07/30 04:32:12;;;;;;;5.40;4.05;;;;;;;17.44;96.45;98603.59;5048186;28;20037;-57
2023/07/30 04:34:39;;;;;;;9.25;6.32;;;;;;;17.38;96.14;98582.25;5066260;28;20048;-56
2023/07/30 04:37:05;;;;;;;7.35;4.22;;;;;;;17.53;96.04;98612.53;5066619;28;20044;-57
2023/07/30 04:39:34;;;;;;;5.72;3.80;;;;;;;17.57;95.70;98614.81;5062238;28;20131;-57
2023/07/30 04:42:01;;;;;;;8.30;5.53;;;;;;;17.58;95.38;98605.97;5066555;28;20082;-55
2023/07/30 04:44:28;;;;;;;7.03;4.03;;;;;;;17.63;95.21;98611.72;5049156;28;20040;-57
2023/07/30 04:47:00;;;;;;;9.80;5.70;;;;;;;17.71;95.07;98614.56;5044978;28;20040;-55
2023/07/30 04:49:26;;;;;;;7.15;4.32;;;;;;;17.79;94.67;98611.31;5054117;28;20071;-60
2023/07/30 04:51:52;;;;;;;5.75;3.67;;;;;;;17.86;94.25;98614.28;5048234;28;20065;-57
2023/07/30 04:54:19;;;;;;;11.02;6.22;;;;;;;17.84;94.04;98603.91;5060730;28;20052;-58
2023/07/30 04:56:45;;;;;;;7.65;3.95;;;;;;;17.88;93.98;98596.59;5052667;28;20040;-58
2023/07/30 04:59:11;;;;;;;9.05;3.58;;;;;;;18.12;92.95;98618.25;5065586;28;20440;-55
2023/07/30 05:01:37;;;;;;;6.82;3.75;;;;;;;18.09;92.54;98602.72;5066708;28;20089;-56
2023/07/30 05:04:04;;;;;;;8.52;3.80;;;;;;;18.25;91.91;98613.66;5057786;28;20037;-58
2023/07/30 05:06:30;;;;;;;9.38;5.18;;;;;;;18.36;91.35;98625.91;5069085;28;20038;-57
2023/07/30 05:08:56;;;;;;;5.97;3.20;;;;;;;18.25;91.15;98603.13;5069232;28;20131;-59
2023/07/30 05:11:23;;;;;;;4.97;3.00;;;;;;;18.45;90.38;98635.69;5070126;28;20575;-57
2023/07/30 05:13:49;;;;;;;7.68;3.80;;;;;;;18.48;89.78;98641.50;5061153;28;20582;-59
2023/07/30 05:16:15;;;;;;;6.68;3.33;;;;;;;18.50;89.27;98636.13;5056710;28;20052;-57
2023/07/30 05:18:43;;;;;;;6.00;2.90;;;;;;;18.56;88.95;98638.28;5044063;28;20048;-56
2023/07/30 05:21:09;;;;;;;3.30;3.00;;;;;;;18.63;88.36;98641.25;5066612;28;20052;-56
2023/07/30 05:23:35;;;;;;;5.43;3.17;;;;;;;18.55;87.81;98612.91;5068320;28;20044;-58
2023/07/30 05:26:01;;;;;;;4.10;2.88;;;;;;;18.69;87.33;98624.91;5070249;28;20037;-57
2023/07/30 05:28:27;;;;;;;4.68;2.83;;;;;;;18.82;86.67;98654.53;5069813;28;20064;-57
2023/07/30 05:30:53;;;;;;;4.10;2.83;;;;;;;18.91;86.02;98645.84;5070011;28;20064;-56
2023/07/30 05:33:19;;;;;;;7.05;3.28;;;;;;;18.97;86.13;98643.53;5051417;28;20032;-55
2023/07/30 05:35:45;;;;;;;5.28;3.00;;;;;;;18.85;85.48;98620.00;5070597;28;20397;-57
2023/07/30 05:38:11;;;;;;;4.78;2.60;;;;;;;18.99;84.78;98643.41;5071144;28;20516;-55
2023/07/30 05:40:37;;;;;;;4.20;3.10;;;;;;;19.03;84.37;98639.53;5053022;28;20189;-56
2023/07/30 05:43:04;;;;;;;4.18;2.50;;;;;;;18.99;83.99;98622.31;5067548;28;20036;-55
2023/07/30 05:45:30;;;;;;;4.32;2.72;;;;;;;19.00;83.42;98602.91;5071111;28;20040;-55
2023/07/30 05:47:56;;;;;;;6.65;2.97;;;;;;;19.26;82.96;98637.56;5069589;28;20044;-56
2023/07/30 05:50:22;;;;;;;5.30;3.47;;;;;;;19.33;83.01;98636.03;5066815;28;20048;-57
2023/07/30 05:52:48;;;;;;;5.18;3.67;;;;;;;19.39;82.67;98636.34;5069386;28;20633;-58
2023/07/30 05:55:14;;;;;;;4.03;2.53;;;;;;;19.45;82.49;98637.66;5068478;28;20114;-57
2023/07/30 05:57:40;;;;;;;4.22;2.50;;;;;;;19.49;81.48;98631.16;5066131;28;20044;-56
2023/07/30 06:00:07;;;;;;;5.00;2.88;;;;;;;19.41;80.84;98610.72;5069388;28;20059;-56
2023/07/30 06:02:38;;;;;;;4.13;2.55;;;;;;;19.45;79.99;98600.75;5068998;28;20036;-55
2023/07/30 06:05:04;;;;;;;4.32;3.00;;;;;;;19.73;79.99;98631.59;5070060;28;20032;-57
2023/07/30 06:07:31;;;;;;;2.75;2.55;;;;;;;19.66;79.04;98627.03;5065944;28;20098;-57
2023/07/30 06:09:57;;;;;;;5.63;2.58;;;;;;;19.72;78.46;98629.97;5069909;28;20040;-55
2023/07/30 06:12:23;;;;;;;4.38;2.58;;;;;;;19.82;78.03;98632.63;5070706;28;20068;-57
2023/07/30 06:14:49;;;;;;;6.72;3.20;;;;;;;19.91;77.60;98623.03;5070297;28;20036;-58
2023/07/30 06:17:16;;;;;;;4.85;2.60;;;;;;;19.99;77.39;98604.72;5070654;28;20098;-57
2023/07/30 06:19:45;;;;;;;3.38;2.40;;;;;;;20.24;76.67;98620.00;5048743;28;20106;-55
2023/07/30 06:22:11;;;;;;;5.35;2.38;;;;;;;20.30;76.59;98617.66;5036097;28;20519;-55
2023/07/30 06:24:37;;;;;;;4.30;2.95;;;;;;;20.40;76.15;98619.47;5068228;28;20040;-56
2023/07/30 06:27:03;;;;;;;5.20;2.30;;;;;;;20.42;75.40;98618.34;5068532;28;20136;-58
2023/07/30 06:29:31;;;;;;;3.97;2.40;;;;;;;20.50;74.63;98615.84;5058831;28;20047;-57
2023/07/30 06:31:57;;;;;;;6.65;2.60;;;;;;;20.89;73.40;98608.66;5062116;28;20040;-58
2023/07/30 06:34:23;;;;;;;4.28;2.60;;;;;;;21.43;72.05;98610.56;5048711;28;21297;-58
2023/07/30 06:36:49;;;;;;;4.00;1.83;;;;;;;21.69;70.00;98562.25;5068383;28;20109;-57
2023/07/30 06:39:15;;;;;;;2.28;2.00;;;;;;;22.40;68.06;98608.91;5069154;28;20127;-57
2023/07/30 06:41:40;;;;;;;8.23;2.10;;;;;;;22.44;67.56;98605.97;5037200;28;20068;-57
2023/07/30 06:44:08;;;;;;;4.43;2.28;;;;;;;22.50;66.71;98598.25;5085572;28;20520;-58
2023/07/30 06:46:34;;;;;;;4.20;2.33;;;;;;;22.77;64.34;98595.47;5068604;28;20142;-56
2023/07/30 06:49:00;;;;;;;8.77;1.98;;;;;;;23.40;63.21;98588.97;5068517;28;20424;-58
2023/07/30 06:51:27;;;;;;;6.85;1.88;;;;;;;24.03;61.27;98592.00;5067263;28;20070;-58
2023/07/30 06:53:53;;;;;;;6.18;2.00;;;;;;;24.49;59.50;98596.69;5069660;28;20062;-58
2023/07/30 06:56:19;;;;;;;3.22;1.70;;;;;;;25.06;56.41;98572.69;5067148;28;20036;-57
2023/07/30 06:58:45;;;;;;;2.78;1.90;;;;;;;26.43;54.23;98596.91;5066185;28;20048;-58
2023/07/30 07:01:11;;;;;;;6.63;2.78;;;;;;;27.98;51.26;98600.31;5067777;28;20062;-59
2023/07/30 07:03:37;;;;;;;4.80;2.72;;;;;;;29.09;48.78;98588.94;5068733;28;20036;-58
2023/07/30 07:06:04;;;;;;;3.72;1.60;;;;;;;29.31;47.60;98593.16;5067991;28;20032;-58
2023/07/30 07:08:30;;;;;;;3.28;1.48;;;;;;;29.87;45.17;98584.94;5065883;28;20046;-57
2023/07/30 07:10:56;;;;;;;2.63;1.63;;;;;;;30.26;44.12;98586.88;5067019;28;20111;-57
2023/07/30 07:13:22;;;;;;;2.70;1.92;;;;;;;31.56;41.37;98592.31;5069529;28;20046;-58
2023/07/30 07:15:48;;;;;;;5.25;2.08;;;;;;;32.47;39.74;98594.69;5069134;28;20037;-58
2023/07/30 07:18:15;;;;;;;3.17;1.88;;;;;;;33.22;38.26;98574.78;5068865;28;20058;-57
2023/07/30 07:20:41;;;;;;;4.18;1.70;;;;;;;33.85;36.89;98586.03;5067905;28;20032;-61
2023/07/30 07:23:07;;;;;;;6.18;4.97;;;;;;;34.34;35.67;98589.47;5069328;28;20060;-58
2023/07/30 07:25:33;;;;;;;3.05;1.75;;;;;;;35.05;34.83;98588.50;5067088;28;20458;-55
2023/07/30 07:27:59;;;;;;;7.75;3.92;;;;;;;36.09;32.96;98577.38;5055262;28;20037;-59
2023/07/30 07:30:25;;;;;;;6.07;3.95;;;;;;;36.33;31.82;98593.50;5067662;28;20093;-57
2023/07/30 07:32:53;;;;;;;4.68;2.03;;;;;;;36.60;31.14;98590.97;5067385;28;20516;-57
2023/07/30 07:35:20;;;;;;;2.13;1.90;;;;;;;37.22;29.67;98586.25;5068289;28;20040;-52
2023/07/30 07:37:46;;;;;;;2.90;2.13;;;;;;;37.64;29.30;98579.19;5059346;28;20040;-53
2023/07/30 07:40:13;;;;;;;4.03;2.40;;;;;;;38.41;28.18;98578.91;5069052;28;20508;-54
2023/07/30 07:42:39;;;;;;;1.77;1.60;;;;;;;39.07;27.53;98576.69;5067089;28;20037;-53
2023/07/30 07:45:06;;;;;;;3.40;1.95;;;;;;;39.23;26.67;98578.41;5066343;28;20051;-57
2023/07/30 07:47:32;;;;;;;3.05;1.98;;;;;;;39.65;25.98;98580.22;5066890;28;20051;-54
2023/07/30 07:49:58;;;;;;;4.90;2.55;;;;;;;39.74;25.57;98567.72;5067828;28;20040;-53
2023/07/30 07:52:25;;;;;;;2.28;1.90;;;;;;;40.29;25.05;98586.13;5068382;28;20053;-57
2023/07/30 07:54:51;;;;;;;2.15;1.83;;;;;;;40.74;24.72;98581.75;5068267;28;20052;-54
2023/07/30 07:57:18;;;;;;;6.38;2.35;;;;;;;40.16;24.01;98583.88;5048973;28;20071;-58
2023/07/30 07:59:44;;;;;;;3.65;2.53;;;;;;;40.19;24.08;98584.22;5068577;28;20044;-56
2023/07/30 08:02:14;;;;;;;3.20;1.92;;;;;;;40.62;23.80;98579.31;5073171;28;20041;-58
2023/07/30 08:04:41;;;;;;;5.78;2.25;;;;;;;41.11;23.33;98573.25;5067121;28;20040;-58
2023/07/30 08:07:07;;;;;;;7.47;2.10;;;;;;;41.55;22.90;98573.38;5067375;28;20389;-74
2023/07/30 08:09:33;;;;;;;3.60;1.70;;;;;;;41.55;23.03;98540.63;5066795;28;20136;-74
2023/07/30 08:12:00;;;;;;;2.85;1.80;;;;;;;41.60;22.64;98570.63;5067579;28;20047;-71
2023/07/30 08:14:26;;;;;;;3.00;2.40;;;;;;;41.71;22.54;98544.91;5064590;28;20072;-74
2023/07/30 08:16:53;;;;;;;2.50;2.22;;;;;;;42.23;22.01;98569.69;5047453;28;20072;-72
2023/07/30 08:19:19;;;;;;;3.10;2.38;;;;;;;42.66;21.66;98567.94;5048748;28;20052;-76
2023/07/30 08:21:45;;;;;;;2.28;1.92;;;;;;;43.09;21.58;98576.31;5063132;28;20043;-76
2023/07/30 08:24:13;;;;;;;2.42;2.05;;;;;;;42.66;21.94;98562.47;5068625;28;20048;-74
2023/07/30 08:26:39;;;;;;;3.90;2.70;;;;;;;41.52;23.09;98557.53;5067141;28;20044;-73
2023/07/30 08:29:06;;;;;;;3.33;2.30;;;;;;;41.41;22.73;98568.47;5083141;28;20075;-73
2023/07/30 08:31:32;;;;;;;3.27;2.00;;;;;;;41.68;22.69;98572.75;5067343;28;20523;-75
2023/07/30 08:33:57;;;;;;;3.40;1.80;;;;;;;39.11;24.35;98558.75;5067000;28;20090;-66
2023/07/30 08:36:24;;;;;;;4.93;2.08;;;;;;;35.89;27.80;98566.19;5065747;28;20420;-59
2023/07/30 08:38:50;;;;;;;3.25;1.85;;;;;;;34.55;29.93;98564.63;5066960;28;20041;-65
2023/07/30 08:41:16;;;;;;;3.45;1.60;;;;;;;33.05;31.81;98550.28;5063805;28;20091;-67
2023/07/30 08:43:42;;;;;;;4.57;2.17;;;;;;;33.11;31.18;98562.03;5057760;28;20041;-64
2023/07/30 08:46:08;;;;;;;3.25;2.30;;;;;;;33.81;31.09;98562.44;5062289;28;20066;-66
2023/07/30 08:48:34;;;;;;;4.07;2.00;;;;;;;36.29;28.35;98568.81;5071130;28;20542;-65
2023/07/30 08:51:00;;;;;;;2.78;2.40;;;;;;;38.01;26.65;98564.97;5071571;28;20059;-66
2023/07/30 08:53:26;;;;;;;4.10;1.90;;;;;;;39.59;25.15;98567.69;5063742;28;20040;-66
2023/07/30 08:55:56;;;;;;;2.65;2.10;;;;;;;40.00;23.47;98569.44;5072005;28;20033;-66
2023/07/30 08:58:23;;;;;;;3.33;2.15;;;;;;;39.94;23.55;98569.72;5070202;28;20048;-65
2023/07/30 09:00:51;;;;;;;3.47;2.25;;;;;;;41.19;22.92;98572.69;5070244;28;20036;-63
2023/07/30 09:03:18;;;;;;;3.70;2.60;;;;;;;40.71;22.91;98534.06;5056414;28;20729;-62
2023/07/30 09:05:43;;;;;;;4.43;2.00;;;;;;;40.48;22.90;98527.25;5063481;28;20041;-63
2023/07/30 09:08:10;;;;;;;5.35;2.80;;;;;;;40.21;22.98;98562.13;5070853;28;20527;-60
2023/07/30 09:10:36;;;;;;;3.05;1.70;;;;;;;40.59;22.79;98563.47;5069717;28;20437;-64
2023/07/30 09:13:03;;;;;;;2.00;1.65;;;;;;;39.08;23.96;98555.75;5071812;28;20048;-58
2023/07/30 09:15:33;;;;;;;5.20;2.22;;;;;;;39.17;24.18;98557.69;5070506;28;20539;-58
2023/07/30 09:18:03;;;;;;;2.63;1.98;;;;;;;40.58;22.97;98565.38;5053044;28;20396;-41
2023/07/30 09:20:37;;;;;;;3.63;1.95;;;;;;;40.27;23.14;98557.50;5035826;28;20075;-40
2023/07/30 09:23:03;;;;;;;3.38;1.50;;;;;;;38.26;24.83;98548.91;5086497;28;20169;-40
2023/07/30 09:25:29;;;;;;;3.05;2.05;;;;;;;37.37;26.25;98553.91;5069414;28;20029;-40
2023/07/30 09:27:56;;;;;;;4.15;1.40;;;;;;;37.14;26.03;98548.75;5059629;28;20067;-42
2023/07/30 09:30:27;;;;;;;4.63;1.95;;;;;;;35.99;27.11;98555.56;5066144;28;20036;-42
2023/07/30 09:32:55;;;;;;;2.97;1.50;;;;;;;34.26;29.25;98547.47;5069196;28;20154;-41
2023/07/30 09:35:22;;;;;;;2.88;2.33;;;;;;;33.20;31.08;98556.13;5070191;28;20123;-40
2023/07/30 09:37:48;;;;;;;2.97;1.65;;;;;;;34.06;29.77;98546.91;5034412;28;20044;-41
2023/07/30 09:40:15;;;;;;;3.10;1.50;;;;;;;35.33;27.98;98563.44;5067246;28;20044;-41
2023/07/30 09:42:43;;;;;;;2.43;1.50;;;;;;;34.29;29.24;98549.69;5070386;28;20040;-41
2023/07/30 09:45:20;;;;;;;2.25;1.90;;;;;;;32.72;31.14;98558.69;5070752;28;20047;-41
2023/07/30 09:47:47;;;;;;;3.65;2.15;;;;;;;31.63;32.77;98552.81;5070710;28;20040;-43
2023/07/30 09:50:15;;;;;;;2.92;1.70;;;;;;;30.62;33.83;98557.81;5069543;28;20032;-44
2023/07/30 09:52:42;;;;;;;2.97;1.95;;;;;;;31.13;33.59;98568.72;5068510;28;20032;-42
2023/07/30 09:55:08;;;;;;;4.10;1.98;;;;;;;33.27;31.15;98569.53;5068757;28;20416;-42
2023/07/30 09:57:35;;;;;;;1.95;1.70;;;;;;;35.42;28.95;98570.94;5067300;28;20051;-41
2023/07/30 10:00:03;;;;;;;3.95;1.80;;;;;;;36.86;26.64;98571.34;5051270;28;20614;-42
2023/07/30 10:02:39;;;;;;;2.90;1.52;;;;;;;36.35;26.75;98577.84;5076142;28;20519;-41
2023/07/30 10:05:10;;;;;;;3.25;1.95;;;;;;;34.97;28.28;98573.44;5059286;28;20577;-45
2023/07/30 10:07:39;;;;;;;2.42;2.03;;;;;;;35.18;28.42;98566.63;5068815;28;20119;-60
2023/07/30 10:10:06;;;;;;;3.50;1.60;;;;;;;36.80;26.70;98558.78;5061415;28;20136;-61
2023/07/30 10:12:34;;;;;;;3.67;2.00;;;;;;;37.89;25.55;98578.69;5068374;28;20066;-60
2023/07/30 10:15:01;;;;;;;2.42;2.00;;;;;;;38.37;25.04;98544.34;5068014;28;20036;-59
2023/07/30 10:17:32;;;;;;;2.72;1.83;;;;;;;38.99;23.90;98580.72;5052261;28;20483;-60
2023/07/30 10:20:19;;;;;;;4.28;1.77;;;;;;;39.84;23.33;98573.22;5070498;28;20152;-62
2023/07/30 10:22:46;;;;;;;3.90;2.03;;;;;;;40.66;22.38;98583.16;5035321;28;20039;-63
2023/07/30 10:25:12;;;;;;;2.30;1.83;;;;;;;41.23;22.24;98577.31;5051261;28;20048;-60
2023/07/30 10:27:40;;;;;;;4.17;1.87;;;;;;;41.84;21.37;98586.03;5063529;28;20036;-57
2023/07/30 10:30:12;;;;;;;1.88;1.77;;;;;;;42.63;20.65;98582.19;5069052;28;20294;-58
2023/07/30 10:32:59;;;;;;;1.95;1.80;;;;;;;42.44;19.78;98577.75;5064842;28;20041;-59
2023/07/30 10:35:48;;;;;;;2.15;1.85;;;;;;;42.93;19.39;98558.41;5060787;28;20119;-58
2023/07/30 10:38:18;;;;;;;3.83;1.60;;;;;;;43.39;19.22;98573.19;5069184;28;20044;-52
2023/07/30 10:41:06;;;;;;;3.83;1.85;;;;;;;41.11;20.39;98586.88;5067570;28;20045;-57
2023/07/30 10:43:49;;;;;;;3.95;2.17;;;;;;;39.57;21.95;98573.38;5069193;28;20048;-58
2023/07/30 10:46:17;;;;;;;5.53;1.80;;;;;;;40.49;21.91;98585.28;5068385;28;20454;-57
2023/07/30 10:48:45;;;;;;;2.58;1.92;;;;;;;41.91;20.49;98560.34;5051004;28;20039;-57
2023/07/30 10:51:13;;;;;;;5.65;2.10;;;;;;;43.04;19.99;98582.63;5069877;28;20044;-61
2023/07/30 10:53:44;;;;;;;4.40;2.60;;;;;;;43.69;19.39;98593.94;5067849;28;20075;-58
2023/07/30 10:56:12;;;;;;;4.93;2.40;;;;;;;44.22;19.11;98577.28;5053778;28;20080;-59
2023/07/30 10:58:37;;;;;;;;;;;;;;;44.70;18.45;98578.69;5065220;28;20477;-60
2023/07/30 11:01:05;;;;;;;2.90;1.80;;;;;;;43.84;18.95;98571.81;5067067;28;19920;-59
2023/07/30 11:03:33;;;;;;;;;;;;;;;41.97;20.29;98568.25;5069405;28;20103;-53
2023/07/30 11:06:00;;;;;;;2.33;1.55;;;;;;;40.03;21.32;98571.63;5067812;28;20419;-57
2023/07/30 11:08:37;;;;;;;2.38;1.50;;;;;;;37.75;23.73;98570.09;5069031;28;20041;-55
2023/07/30 11:11:05;;;;;;;2.80;2.17;;;;;;;35.97;26.25;98565.78;5066898;28;20049;-56
2023/07/30 11:13:36;;;;;;;2.73;1.77;;;;;;;34.55;27.86;98566.50;5068917;28;20103;-52
2023/07/30 11:16:03;;;;;;;3.15;1.50;;;;;;;33.69;28.97;98565.09;5065298;28;20282;-57
2023/07/30 11:18:34;;;;;;;1.65;1.25;;;;;;;32.79;29.87;98575.59;5070903;28;20055;-56
2023/07/30 11:21:08;;;;;;;3.00;1.90;;;;;;;33.10;30.17;98563.88;5071145;28;20508;-55
2023/07/30 11:23:35;;;;;;;2.42;2.05;;;;;;;35.68;27.37;98567.72;5066882;28;20039;-56
2023/07/30 11:26:03;;;;;;;3.85;1.80;;;;;;;38.06;25.10;98563.13;5065802;28;20131;-56
2023/07/30 11:28:37;;;;;;;2.83;2.53;;;;;;;39.82;22.88;98572.69;5066842;28;20048;-56
2023/07/30 11:31:19;;;;;;;4.78;2.65;;;;;;;40.73;21.66;98580.09;5067634;28;20119;-56